Thunder radar more information blitzortung!


Radar de pluja more information rain snow radar


Visita la nostra xarxa de llocs de meteo:

Template documentation
and downloads

And another site



No particular awareness of the weather is required.    There are no Weather-warnings

Pagina Historial Weather Underground text

Diari Resum Juliol 3, 2017 Unitats:  Mètric    Imperial   Tant
« Previous Dia
SegĂźent Dia »
Diari Setmana Mensual Anual Personalitzada
  Maxima: Minima: Media:
Temperatura: -17.8 °C -8.9 °C -3.7 °C
Punt de rosada: -17.8 °C -12.9 °C -11.5 °C
Humitat: Humidity % 28 % 43 %
Wind Speed: 0 km/h 0 km/h 11.7 km/h
RĂ fegues de vent: 0 km/h - -
Vent:- - SSW
Pression baro: 0 hPa 34428.8 hPa -
Precipitacions: 0 mm    
Historical Graphs
 
 
Dades de taula per Juliol 3, 2017
Temps Temperatura Punt de rosada Pression baro Vent Wind Speed RĂ fegues de vent Humitat Rainfall Rate (Hourly)
-17.8 °C -17.8 °C 0 hPa Calm     Humidity % 0 mm
00:00 -8.4 °C -11.8 °C 34533.8 hPa Calm     68 % 0 mm
00:03 -6.4 °C -11.7 °C 34601.5 hPa NE 6 km/h 6 km/h 54 % 0 mm
00:10 -8.5 °C -11.8 °C 34533.8 hPa Calm     68 % 0 mm
00:20 -8.7 °C -12 °C 34533.8 hPa SSW 5.1 km/h 5.1 km/h 68 % 0 mm
00:30 -8.9 °C -12.1 °C 34533.8 hPa SW 2.6 km/h 5.1 km/h 69 % 0 mm
00:40 -8.8 °C -11.9 °C 34533.8 hPa Calm   2.6 km/h 70 % 0 mm
00:50 -8.8 °C -11.8 °C 34533.8 hPa Calm     70 % 0 mm
01:00 -8.8 °C -11.9 °C 34533.8 hPa Calm     70 % 0 mm
01:10 -8.8 °C -11.9 °C 34533.8 hPa Calm   2.6 km/h 70 % 0 mm
01:20 -8.8 °C -11.7 °C 34533.8 hPa Calm   2.6 km/h 71 % 0 mm
01:30 -8.8 °C -11.9 °C 34567.7 hPa Calm   2.6 km/h 70 % 0 mm
01:40 -8.9 °C -11.8 °C 34567.7 hPa ENE 2.6 km/h 2.6 km/h 71 % 0 mm
01:50 -8.7 °C -11.6 °C 34567.7 hPa Calm   2.6 km/h 71 % 0 mm
02:00 -8.5 °C -11.4 °C 34567.7 hPa NE 2.6 km/h 2.6 km/h 71 % 0 mm
02:10 -8.7 °C -11.8 °C 34567.7 hPa NNE 2.6 km/h 5.1 km/h 69 % 0 mm
02:20 -8.7 °C -11.8 °C 34567.7 hPa SW 5.1 km/h 5.1 km/h 69 % 0 mm
02:30 -8.6 °C -11.7 °C 34567.7 hPa SW 2.6 km/h 5.1 km/h 69 % 0 mm
02:40 -8.2 °C -11.3 °C 34567.7 hPa Calm   7.7 km/h 69 % 0 mm
02:50 -8.1 °C -11.6 °C 34601.5 hPa SSW 2.6 km/h 7.7 km/h 67 % 0 mm
03:00 -7.7 °C -11.2 °C 34601.5 hPa Calm   2.6 km/h 67 % 0 mm
03:10 -7.7 °C -11.4 °C 34601.5 hPa SW 2.6 km/h 5.1 km/h 65 % 0 mm
03:20 -7.2 °C -11.2 °C 34601.5 hPa Calm   5.1 km/h 63 % 0 mm
03:30 -6.9 °C -11.4 °C 34601.5 hPa East 5.1 km/h 10.3 km/h 60 % 0 mm
03:40 -6.6 °C -11.3 °C 34601.5 hPa NE 5.1 km/h 5.1 km/h 58 % 0 mm
03:50 -6.6 °C -11.4 °C 34601.5 hPa NNE 5.1 km/h 10.3 km/h 57 % 0 mm
04:00 -6.1 °C -11.1 °C 34601.5 hPa NNE 12.9 km/h 12.9 km/h 56 % 0 mm
04:10 -5.8 °C -11.1 °C 34601.5 hPa NNE 5.1 km/h 10.3 km/h 55 % 0 mm
04:20 -5.3 °C -10.8 °C 34601.5 hPa ESE 2.6 km/h 5.1 km/h 54 % 0 mm
04:30 -5.2 °C -10.8 °C 34601.5 hPa SSW 2.6 km/h 7.7 km/h 53 % 0 mm
04:40 -5 °C -10.8 °C 34601.5 hPa SW 2.6 km/h 7.7 km/h 52 % 0 mm
04:50 -4.9 °C -10.8 °C 34601.5 hPa SSW 2.6 km/h 7.7 km/h 51 % 0 mm
05:00 -4.7 °C -10.7 °C 34601.5 hPa Calm   10.3 km/h 51 % 0 mm
05:10 -4.2 °C -10.4 °C 34601.5 hPa SSW 2.6 km/h 7.7 km/h 50 % 0 mm
05:20 -3.9 °C -10.3 °C 34601.5 hPa South 5.1 km/h 7.7 km/h 49 % 0 mm
05:30 -3.9 °C -10.6 °C 34601.5 hPa SSE 7.7 km/h 7.7 km/h 47 % 0 mm
05:35 -4.3 °C -11 °C 34601.5 hPa SE 5.1 km/h 10.3 km/h 47 % 0 mm
10:36 -4.3 °C -10.9 °C 34601.5 hPa East 7.6 km/h 9.3 km/h 47 % 0 mm
10:37 -4.3 °C -10.9 °C 34601.5 hPa SE 6.8 km/h 9.3 km/h 47 % 0 mm
10:42 -3.9 °C -10.6 °C 34567.7 hPa WNW 9 km/h 9 km/h 47 % 0 mm
10:47 -3.8 °C -10.5 °C 34567.7 hPa SW 11.9 km/h 11.9 km/h 47 % 0 mm
10:52 -3.6 °C -10.5 °C 34567.7 hPa SE 6 km/h 6 km/h 46 % 0 mm
10:57 -3.8 °C -10.7 °C 34567.7 hPa SSW 6 km/h 6 km/h 46 % 0 mm
11:02 -3.6 °C -10.7 °C 34567.7 hPa SSE 9 km/h 9 km/h 45 % 0 mm
11:07 -3.6 °C -10.7 °C 34567.7 hPa East 9.3 km/h 9.3 km/h 45 % 0 mm
11:12 -3.6 °C -10.7 °C 34567.7 hPa ENE 9 km/h 9 km/h 45 % 0 mm
11:17 -3.3 °C -10.6 °C 34567.7 hPa WSW 6.3 km/h 6.3 km/h 44 % 0 mm
11:22 -3.2 °C -10.6 °C 34567.7 hPa SE 11.9 km/h 11.9 km/h 44 % 0 mm
11:27 -3.1 °C -10.4 °C 34567.7 hPa SSW 9 km/h 9 km/h 44 % 0 mm
11:32 -2.8 °C -10.2 °C 34567.7 hPa WNW 17.9 km/h 17.9 km/h 44 % 0 mm
11:37 -2.2 °C -10 °C 34567.7 hPa SW 6.8 km/h 6.8 km/h 42 % 0 mm
11:42 -2.2 °C -10.1 °C 34533.8 hPa WSW 11.9 km/h 11.9 km/h 42 % 0 mm
11:47 -2 °C -9.9 °C 34533.8 hPa SW 9 km/h 9 km/h 42 % 0 mm
11:52 -2.1 °C -10.1 °C 34533.8 hPa ESE 11.1 km/h 11.1 km/h 41 % 0 mm
11:57 -2.3 °C -10.6 °C 34533.8 hPa SSE 9 km/h 9 km/h 40 % 0 mm
12:02 -2.4 °C -10.4 °C 34533.8 hPa ESE 9 km/h 9 km/h 41 % 0 mm
12:07 -2.3 °C -10.5 °C 34533.8 hPa ENE 9 km/h 9 km/h 40 % 0 mm
12:12 -2.2 °C -10.2 °C 34533.8 hPa SW 10.3 km/h 10.3 km/h 41 % 0 mm
12:17 -1.8 °C -10.1 °C 34533.8 hPa SW 15 km/h 15 km/h 40 % 0 mm
12:22 -1.4 °C -10.2 °C 34533.8 hPa SW 6.3 km/h 6.3 km/h 38 % 0 mm
12:27 -1.6 °C -10.3 °C 34533.8 hPa NW 9 km/h 9 km/h 38 % 0 mm
12:32 -1.4 °C -10.2 °C 34533.8 hPa SW 11.9 km/h 11.9 km/h 38 % 0 mm
12:37 -1.2 °C -10.2 °C 34533.8 hPa SSW 9 km/h 9 km/h 37 % 0 mm
12:42 -1.2 °C -10.2 °C 34533.8 hPa SSW 6 km/h 6 km/h 37 % 0 mm
12:47 -1.2 °C -10.4 °C 34533.8 hPa West 15 km/h 15 km/h 36 % 0 mm
12:52 -1.3 °C -10.8 °C 34533.8 hPa WSW 20.9 km/h 20.9 km/h 35 % 0 mm
12:57 -1.1 °C -10.6 °C 34533.8 hPa WSW 15 km/h 15 km/h 35 % 0 mm
13:02 -1.1 °C -10.8 °C 34533.8 hPa WSW 17.9 km/h 17.9 km/h 34 % 0 mm
13:07 -1.1 °C -11.2 °C 34533.8 hPa SW 15.6 km/h 15.6 km/h 33 % 0 mm
13:12 -0.9 °C -11 °C 34533.8 hPa SSE 7.6 km/h 7.6 km/h 33 % 0 mm
13:17 -0.9 °C -11.2 °C 34533.8 hPa SW 20.9 km/h 20.9 km/h 32 % 0 mm
13:22 -0.8 °C -10.8 °C 34533.8 hPa SW 17.9 km/h 17.9 km/h 33 % 0 mm
13:27 -0.9 °C -11.2 °C 34533.8 hPa South 15 km/h 15 km/h 32 % 0 mm
13:32 -0.6 °C -11.2 °C 34533.8 hPa SSE 6 km/h 6 km/h 31 % 0 mm
13:37 -1.2 °C -11.2 °C 34533.8 hPa WSW 8.5 km/h   33 % 0 mm
13:42 -0.7 °C -10.7 °C 34533.8 hPa SSW 11.9 km/h 11.9 km/h 33 % 0 mm
13:47 -0.6 °C -10.7 °C 34533.8 hPa West 17.9 km/h 17.9 km/h 33 % 0 mm
13:52 -0.4 °C -10.8 °C 34533.8 hPa SSE 10.3 km/h 10.3 km/h 32 % 0 mm
13:57 -0.4 °C -10.8 °C 34496.6 hPa SW 9 km/h 11.6 km/h 32 % 0 mm
14:02 -0.2 °C -10.3 °C 34496.6 hPa West 11.9 km/h 11.9 km/h 33 % 0 mm
14:07 -0.9 °C -10.5 °C 34496.6 hPa ENE 15 km/h 15 km/h 35 % 0 mm
14:12 -0.8 °C -10.4 °C 34496.6 hPa SW 20.9 km/h 20.9 km/h 35 % 0 mm
14:17 -0.3 °C -10.2 °C 34496.6 hPa SW 6 km/h 6.8 km/h 34 % 0 mm
14:22 -0.2 °C -10.1 °C 34496.6 hPa SW 15 km/h 15 km/h 34 % 0 mm
14:27 -0.3 °C -10.2 °C 34496.6 hPa West 18.3 km/h 18.3 km/h 34 % 0 mm
14:32 -0.2 °C -10.1 °C 34496.6 hPa SW 16.1 km/h 16.1 km/h 34 % 0 mm
14:37 -0.4 °C -10.3 °C 34496.6 hPa SSW 26.9 km/h 26.9 km/h 34 % 0 mm
14:42 -0.3 °C -10.2 °C 34496.6 hPa SW 20.9 km/h 20.9 km/h 34 % 0 mm
14:47 -0.3 °C -10.2 °C 34496.6 hPa WSW 15.6 km/h 15.6 km/h 34 % 0 mm
14:52 -0.3 °C -10.4 °C 34496.6 hPa West 11.9 km/h 12.2 km/h 33 % 0 mm
14:57 -0.3 °C -10.4 °C 34496.6 hPa SSW 23.8 km/h 23.8 km/h 33 % 0 mm
15:02 -0.4 °C -10.8 °C 34496.6 hPa SSW 15.3 km/h 15.3 km/h 32 % 0 mm
15:07 -0.4 °C -10.8 °C 34496.6 hPa SSW 23.8 km/h 23.8 km/h 32 % 0 mm
15:12 -0.4 °C -10.8 °C 34496.6 hPa SW 23.8 km/h 23.8 km/h 32 % 0 mm
15:17 -0.4 °C -11.1 °C 34496.6 hPa SW 15 km/h 15 km/h 31 % 0 mm
15:22 -0.4 °C -11 °C 34496.6 hPa SW 17.9 km/h 17.9 km/h 31 % 0 mm
15:27 -0.3 °C -11 °C 34496.6 hPa WNW 15 km/h 15 km/h 31 % 0 mm
15:32 -0.4 °C -11.3 °C 34496.6 hPa SSW 11.1 km/h 11.6 km/h 30 % 0 mm
15:37 -0.5 °C -11.4 °C 34496.6 hPa SW 15.3 km/h 15.3 km/h 30 % 0 mm
15:42 -0.5 °C -11.4 °C 34496.6 hPa South 17.4 km/h 17.4 km/h 30 % 0 mm
15:47 -0.3 °C -11.2 °C 34496.6 hPa SSW 23.8 km/h 23.8 km/h 30 % 0 mm
15:52 -0.4 °C -11.3 °C 34496.6 hPa South 23.8 km/h 23.8 km/h 30 % 0 mm
15:57 -0.4 °C -11.3 °C 34462.7 hPa SW 17.9 km/h 17.9 km/h 30 % 0 mm
16:02 -0.7 °C -11.8 °C 34462.7 hPa SW 20.9 km/h 20.9 km/h 29 % 0 mm
16:07 -0.3 °C -11.6 °C 34462.7 hPa WSW 25.9 km/h 25.9 km/h 29 % 0 mm
16:12 -0.3 °C -11.5 °C 34462.7 hPa South 20.9 km/h 20.9 km/h 29 % 0 mm
16:17 -0.1 °C -11.3 °C 34462.7 hPa SW 17.9 km/h 17.9 km/h 29 % 0 mm
16:22 -0.6 °C -11.7 °C 34462.7 hPa SW 26.9 km/h 26.9 km/h 29 % 0 mm
16:27 -0.7 °C -11.9 °C 34462.7 hPa WSW 23.3 km/h 23.3 km/h 29 % 0 mm
16:32 -0.9 °C -12.3 °C 34462.7 hPa SW 32.8 km/h 32.8 km/h 28 % 0 mm
16:37 -1.1 °C -12.4 °C 34462.7 hPa WNW 32.8 km/h 32.8 km/h 28 % 0 mm
16:42 -1.2 °C -12.6 °C 34462.7 hPa SSW 26.9 km/h 26.9 km/h 28 % 0 mm
16:47 -1.3 °C -12.7 °C 34462.7 hPa SW 23.8 km/h 23.8 km/h 28 % 0 mm
16:52 -1.2 °C -12.6 °C 34462.7 hPa SSE 20.9 km/h 20.9 km/h 28 % 0 mm
16:57 -1.4 °C -12.8 °C 34462.7 hPa SW 32.8 km/h 32.8 km/h 28 % 0 mm
17:02 -1.3 °C -12.4 °C 34462.7 hPa WSW 25.1 km/h 25.1 km/h 29 % 0 mm
17:07 -1.3 °C -12.3 °C 34462.7 hPa SSW 20.9 km/h 20.9 km/h 29 % 0 mm
17:12 -1.6 °C -12.9 °C 34428.8 hPa SSW 26.9 km/h 26.9 km/h 28 % 0 mm
17:17 -1.7 °C -12.7 °C 34428.8 hPa SW 32.8 km/h 32.8 km/h 29 % 0 mm
17:22 -1.7 °C -12.9 °C 34428.8 hPa SW 23.8 km/h 23.8 km/h 28 % 0 mm
17:27 -1.5 °C -12.6 °C 34462.7 hPa SSW 26.9 km/h 26.9 km/h 29 % 0 mm
17:32 -1.6 °C -12.6 °C 34462.7 hPa South 23.8 km/h 23.8 km/h 29 % 0 mm
17:37 -1.6 °C -12.6 °C 34462.7 hPa WSW 32.8 km/h 32.8 km/h 29 % 0 mm
17:42 -1.7 °C -12.4 °C 34462.7 hPa SSW 23.8 km/h 23.8 km/h 30 % 0 mm
17:47 -1.7 °C -12.4 °C 34462.7 hPa SW 22 km/h 22 km/h 30 % 0 mm
17:52 -1.7 °C -12.7 °C 34462.7 hPa SW 26.9 km/h 26.9 km/h 29 % 0 mm
17:57 -1.8 °C -12.5 °C 34428.8 hPa West 23.8 km/h 23.8 km/h 30 % 0 mm
18:02 -1.7 °C -12.4 °C 34428.8 hPa SSE 20.9 km/h 20.9 km/h 30 % 0 mm
18:07 -1.9 °C -12.7 °C 34428.8 hPa SSW 35.7 km/h 35.7 km/h 30 % 0 mm
18:12 -1.8 °C -12.6 °C 34462.7 hPa SW 20.9 km/h 20.9 km/h 30 % 0 mm
18:17 -1.8 °C -12.6 °C 34462.7 hPa SW 16.1 km/h 16.1 km/h 30 % 0 mm
18:22 -1.9 °C -12.7 °C 34462.7 hPa SW 17.9 km/h 17.9 km/h 30 % 0 mm
18:27 -1.8 °C -12.3 °C 34462.7 hPa SSW 20.3 km/h 20.3 km/h 31 % 0 mm
18:32 -1.9 °C -12.4 °C 34462.7 hPa WSW 23.8 km/h 23.8 km/h 31 % 0 mm
18:37 -2.3 °C -12.7 °C 34462.7 hPa South 17.9 km/h 17.9 km/h 31 % 0 mm
18:42 -2.1 °C -12.6 °C 34462.7 hPa SSE 14.5 km/h 14.5 km/h 31 % 0 mm
18:47 -2.1 °C -12.6 °C 34462.7 hPa SSW 14 km/h 14 km/h 31 % 0 mm
18:52 -2.3 °C -12.4 °C 34462.7 hPa WSW 17.9 km/h 17.9 km/h 32 % 0 mm
18:57 -2.5 °C -12.6 °C 34462.7 hPa SSW 26.9 km/h 26.9 km/h 32 % 0 mm
19:02 -2.6 °C -12.7 °C 34462.7 hPa South 20.9 km/h 20.9 km/h 32 % 0 mm
19:07 -2.6 °C -12.7 °C 34462.7 hPa South 20.9 km/h 20.9 km/h 32 % 0 mm
19:10 -6 °C -11.4 °C 34601.5 hPa WSW 7.7 km/h 7.7 km/h 54 % 0 mm
19:12 -2.6 °C -12.7 °C 34462.7 hPa SW 17.9 km/h 17.9 km/h 32 % 0 mm
19:17 -2.7 °C -12.8 °C 34462.7 hPa South 15.3 km/h 15.3 km/h 32 % 0 mm
19:20 -6.1 °C -11.3 °C 34496.6 hPa SW 2.6 km/h 7.7 km/h 55 % 0 mm
19:22 -2.8 °C -12.6 °C 34462.7 hPa WSW 20.9 km/h 20.9 km/h 33 % 0 mm
19:27 -2.9 °C -12.4 °C 34462.7 hPa South 15 km/h 15 km/h 34 % 0 mm
19:30 -6.2 °C -11.2 °C 34496.6 hPa WSW 5.1 km/h 5.1 km/h 56 % 0 mm
19:32 -2.9 °C -12.4 °C 34462.7 hPa SSW 23.8 km/h 23.8 km/h 34 % 0 mm
19:37 -2.9 °C -12.4 °C 34462.7 hPa West 6 km/h 6 km/h 34 % 0 mm
19:40 -6.2 °C -11 °C 34496.6 hPa WSW 2.6 km/h 5.1 km/h 58 % 0 mm
19:42 -3 °C -12.3 °C 34462.7 hPa SW 20.9 km/h 20.9 km/h 35 % 0 mm
19:47 -3.1 °C -12.3 °C 34462.7 hPa East 15 km/h 15 km/h 35 % 0 mm
19:50 -6.3 °C -11.1 °C 34496.6 hPa West 2.6 km/h 7.7 km/h 58 % 0 mm
19:52 -3.1 °C -12.2 °C 34462.7 hPa SW 17.9 km/h 17.9 km/h 36 % 0 mm
19:57 -3.2 °C -12.2 °C 34462.7 hPa WSW 9 km/h 9 km/h 36 % 0 mm
20:00 -6.3 °C -10.7 °C 34496.6 hPa West 5.1 km/h 7.7 km/h 60 % 0 mm
20:02 -3.3 °C -12.3 °C 34462.7 hPa SSW 23.8 km/h 23.8 km/h 36 % 0 mm
20:07 -3.3 °C -12.1 °C 34462.7 hPa SW 15 km/h 15 km/h 37 % 0 mm
20:10 -6.3 °C -10.8 °C 34496.6 hPa West 5.1 km/h 5.1 km/h 60 % 0 mm
20:12 -3.4 °C -12.2 °C 34462.7 hPa SSW 22.5 km/h 22.5 km/h 37 % 0 mm
20:17 -3.4 °C -12.2 °C 34462.7 hPa South 15 km/h 15 km/h 37 % 0 mm
20:20 -6.4 °C -10.6 °C 34496.6 hPa West 5.1 km/h 7.7 km/h 62 % 0 mm
20:22 -3.5 °C -12.3 °C 34462.7 hPa SW 20.9 km/h 20.9 km/h 37 % 0 mm
20:27 -3.6 °C -12.2 °C 34462.7 hPa SW 15 km/h 15 km/h 38 % 0 mm
20:32 -3.7 °C -12.2 °C 34462.7 hPa SW 16.6 km/h 16.6 km/h 38 % 0 mm
20:34 -3.7 °C -12.3 °C 34462.7 hPa WSW 17.9 km/h 17.9 km/h 38 % 0 mm
20:39 -3.7 °C -12.3 °C 34462.7 hPa SSW 10.3 km/h 10.3 km/h 38 % 0 mm
20:40 -6.5 °C -10.6 °C 34496.6 hPa WSW 5.1 km/h 5.1 km/h 63 % 0 mm
20:44 -3.8 °C -12.1 °C 34462.7 hPa SW 14.5 km/h 14.5 km/h 39 % 0 mm
20:49 -3.9 °C -12.2 °C 34462.7 hPa SSE 9 km/h 9 km/h 39 % 0 mm
20:50 -6.5 °C -10.3 °C 34496.6 hPa West 5.1 km/h 5.1 km/h 65 % 0 mm
20:54 -4 °C -12.1 °C 34462.7 hPa SW 15 km/h 15 km/h 40 % 0 mm
20:59 -4.1 °C -12.1 °C 34462.7 hPa SW 6 km/h 6 km/h 40 % 0 mm
21:00 -6.5 °C -10.2 °C 34462.7 hPa West 5.1 km/h 7.7 km/h 66 % 0 mm
21:04 -4.1 °C -12 °C 34462.7 hPa SW 6.3 km/h 6.3 km/h 41 % 0 mm
21:09 -4.2 °C -12 °C 34462.7 hPa SW 6 km/h 6 km/h 41 % 0 mm
21:10 -6.6 °C -10 °C 34462.7 hPa Calm   2.6 km/h 68 % 0 mm
21:14 -4.3 °C -12.1 °C 34462.7 hPa SW 9 km/h 9 km/h 41 % 0 mm
21:19 -4.4 °C -12.2 °C 34462.7 hPa WSW 9 km/h 9 km/h 41 % 0 mm
21:20 -6.7 °C -9.8 °C 34496.6 hPa Calm     70 % 0 mm
21:24 -4.4 °C -12.1 °C 34462.7 hPa South 9 km/h 9 km/h 42 % 0 mm
21:29 -4.6 °C -12.2 °C 34462.7 hPa West 6 km/h 6 km/h 42 % 0 mm
21:30 -6.9 °C -10.1 °C 34496.6 hPa Calm   2.6 km/h 69 % 0 mm
21:34 -4.6 °C -12 °C 34462.7 hPa SW 9.8 km/h 9.8 km/h 43 % 0 mm
21:39 -4.7 °C -12.1 °C 34462.7 hPa WSW 11.9 km/h 11.9 km/h 43 % 0 mm
21:40 -7.1 °C -10.2 °C 34496.6 hPa Calm     70 % 0 mm
21:44 -4.8 °C -12 °C 34462.7 hPa SSW 6 km/h 6 km/h 44 % 0 mm
21:49 -4.8 °C -12.1 °C 34462.7 hPa West 9 km/h 9 km/h 44 % 0 mm
21:50 -7.2 °C -10.2 °C 34462.7 hPa Calm   2.6 km/h 71 % 0 mm
21:54 -4.9 °C -11.9 °C 34462.7 hPa West 5.1 km/h 5.1 km/h 45 % 0 mm
21:55 -4.9 °C -11.9 °C 34462.7 hPa WNW 6 km/h 6 km/h 45 % 0 mm
22:00 -4.9 °C -11.9 °C 34496.6 hPa WSW 6 km/h 6 km/h 45 % 0 mm
22:05 -5 °C -11.8 °C 34496.6 hPa West 6 km/h 6 km/h 46 % 0 mm
22:10 -5.1 °C -11.8 °C 34496.6 hPa WSW 6 km/h 6 km/h 46 % 0 mm
22:15 -5.1 °C -11.7 °C 34462.7 hPa SW 6 km/h 6 km/h 47 % 0 mm
22:20 -5.1 °C -11.7 °C 34462.7 hPa WSW 6 km/h 6 km/h 47 % 0 mm
22:25 -5.2 °C -11.8 °C 34462.7 hPa WSW 2.3 km/h 3.1 km/h 47 % 0 mm
22:30 -5.2 °C -11.8 °C 34496.6 hPa West 9 km/h 9 km/h 47 % 0 mm
22:35 -5.3 °C -11.9 °C 34496.6 hPa WSW 11.9 km/h 11.9 km/h 47 % 0 mm
22:40 -5.3 °C -11.7 °C 34496.6 hPa West 6.3 km/h 6.3 km/h 48 % 0 mm
22:45 -5.3 °C -11.8 °C 34496.6 hPa SW 6.8 km/h 6.8 km/h 48 % 0 mm
22:50 -5.4 °C -11.8 °C 34496.6 hPa WSW 6 km/h 6 km/h 48 % 0 mm
22:55 -5.4 °C -11.8 °C 34496.6 hPa West 6 km/h 6 km/h 48 % 0 mm
23:00 -5.5 °C -11.9 °C 34496.6 hPa SW 6.8 km/h 6.8 km/h 48 % 0 mm
23:05 -5.6 °C -11.8 °C 34496.6 hPa SW 6 km/h 6 km/h 49 % 0 mm
23:10 -5.6 °C -11.8 °C 34496.6 hPa SW 6 km/h 6 km/h 49 % 0 mm
23:15 -5.6 °C -11.8 °C 34496.6 hPa West 6 km/h 6 km/h 49 % 0 mm
23:20 -5.7 °C -11.9 °C 34496.6 hPa WSW 6 km/h 6 km/h 49 % 0 mm
23:25 -5.7 °C -11.7 °C 34496.6 hPa WSW 3.1 km/h 3.7 km/h 50 % 0 mm
23:30 -5.7 °C -11.8 °C 34496.6 hPa WNW 6 km/h 6 km/h 50 % 0 mm
23:35 -5.7 °C -11.6 °C 34496.6 hPa WSW 3.7 km/h   51 % 0 mm
23:40 -5.8 °C -11.7 °C 34496.6 hPa West 6 km/h 6 km/h 51 % 0 mm
23:41 -5.8 °C -11.7 °C 34496.6 hPa West 6 km/h 6 km/h 51 % 0 mm
23:46 -5.8 °C -11.7 °C 34496.6 hPa West 5.1 km/h 5.1 km/h 51 % 0 mm
23:50 -7.9 °C -10.3 °C 34462.7 hPa WNW 2.6 km/h 5.1 km/h 76 % 0 mm
23:51 -5.8 °C -11.6 °C 34496.6 hPa West 6.8 km/h 6.8 km/h 52 % 0 mm
23:56 -5.9 °C -11.6 °C 34496.6 hPa WSW 6.8 km/h 6.8 km/h 52 % 0 mm
Meteo Sesrovires
Elogis d' Weather Underground - 1.5 mb

Guio original per  Jim McMurry - jmcmurry@mwt.net Adaptat per a la plantilla per  Wim van der Kuil - Leuven-Template.eu

Trobareu la nostra informacio del temps tambe a:

Weather Underground

AWEKAS